Time;durP1;ratioP1;P1;durP2;ratioP2;P2;SDS_P1;SDS_P2;PMS_P1;PMS_P2;Temp;Humidity;BMP_temperature;BMP_pressure;BME280_temperature;BME280_humidity;BME280_pressure;Samples;Min_cycle;Max_cycle;Signal;HPM_P1;HPM_P2
2020/12/30 00:00:32;;;;;;;11.23;3.20;;;;;;;;;;5093261;28;20020;-69
2020/12/30 00:02:58;;;;;;;4.70;2.03;;;;;;;;;;5094044;28;20476;-69
2020/12/30 00:05:24;;;;;;;5.20;1.80;;;;;;;;;;5095983;28;20020;-69
2020/12/30 00:07:51;;;;;;;8.70;3.33;;;;;;;;;;5096497;28;20022;-69
2020/12/30 00:10:21;;;;;;;7.07;1.73;;;;;;;;;;5097815;28;20016;-69
2020/12/30 00:12:47;;;;;;;7.22;2.55;;;;;;;;;;5096373;28;20031;-70
2020/12/30 00:15:14;;;;;;;2.65;0.63;;;;;;;;;;5097479;28;20084;-70
2020/12/30 00:17:41;;;;;;;9.10;1.52;;;;;;;;;;5096358;28;20024;-70
2020/12/30 00:20:10;;;;;;;3.80;1.50;;;;;;;;;;5097368;28;20016;-70
2020/12/30 00:22:37;;;;;;;6.65;2.65;;;;;;;;;;5097318;28;20096;-70
2020/12/30 00:25:04;;;;;;;3.95;1.20;;;;;;;;;;5097651;28;20155;-70
2020/12/30 00:27:30;;;;;;;5.75;0.93;;;;;;;;;;5097169;28;20101;-70
2020/12/30 00:29:56;;;;;;;7.18;2.05;;;;;;;;;;5097384;28;20044;-70
2020/12/30 00:32:22;;;;;;;5.57;2.25;;;;;;;;;;5096130;28;20513;-70
2020/12/30 00:34:49;;;;;;;6.97;2.80;;;;;;;;;;5097067;28;20012;-70
2020/12/30 00:37:15;;;;;;;9.65;3.50;;;;;;;;;;5097281;28;20024;-70
2020/12/30 00:39:41;;;;;;;6.95;3.40;;;;;;;;;;5095960;28;20019;-71
2020/12/30 00:42:07;;;;;;;9.07;4.47;;;;;;;;;;5095668;28;20533;-71
2020/12/30 00:44:34;;;;;;;11.27;4.35;;;;;;;;;;5095888;28;20070;-70
2020/12/30 00:47:00;;;;;;;8.60;4.82;;;;;;;;;;5096808;28;20410;-71
2020/12/30 00:49:27;;;;;;;10.75;6.65;;;;;;;;;;5095731;28;20027;-71
2020/12/30 00:51:54;;;;;;;9.38;5.18;;;;;;;;;;5095747;28;20020;-71
2020/12/30 00:54:20;;;;;;;13.93;5.85;;;;;;;;;;5096970;28;20013;-71
2020/12/30 00:56:47;;;;;;;13.90;6.93;;;;;;;;;;5096692;28;20493;-71
2020/12/30 00:59:14;;;;;;;10.05;5.55;;;;;;;;;;5095573;28;20017;-71
2020/12/30 01:01:40;;;;;;;12.98;5.15;;;;;;;;;;5096830;28;20016;-71
2020/12/30 01:04:06;;;;;;;12.02;5.85;;;;;;;;;;5096201;28;20102;-70
2020/12/30 01:06:33;;;;;;;13.77;6.45;;;;;;;;;;5095570;28;20330;-71
2020/12/30 01:08:59;;;;;;;13.32;6.35;;;;;;;;;;5095913;28;20368;-71
2020/12/30 01:11:29;;;;;;;18.55;9.85;;;;;;;;;;5096352;28;20024;-71
2020/12/30 01:13:58;;;;;;;25.45;11.82;;;;;;;;;;5096607;28;20039;-71
2020/12/30 01:16:25;;;;;;;44.78;18.70;;;;;;;;;;5095125;28;20022;-71
2020/12/30 01:18:51;;;;;;;24.38;12.02;;;;;;;;;;5096060;28;20023;-71
2020/12/30 01:21:18;;;;;;;15.40;6.72;;;;;;;;;;5096713;28;20031;-71
2020/12/30 01:23:44;;;;;;;21.08;8.43;;;;;;;;;;5096322;28;20055;-71
2020/12/30 01:26:11;;;;;;;25.42;10.23;;;;;;;;;;5096389;28;20036;-71
2020/12/30 01:28:37;;;;;;;25.60;12.93;;;;;;;;;;5095000;28;20082;-71
2020/12/30 01:31:03;;;;;;;36.33;19.42;;;;;;;;;;5096009;28;20044;-71
2020/12/30 01:33:29;;;;;;;33.00;16.38;;;;;;;;;;5096109;28;20051;-70
2020/12/30 01:35:55;;;;;;;23.35;12.35;;;;;;;;;;5096164;28;20112;-70
2020/12/30 01:38:21;;;;;;;24.80;9.73;;;;;;;;;;5095676;28;20020;-69
2020/12/30 01:40:47;;;;;;;16.42;8.48;;;;;;;;;;5096183;28;20047;-71
2020/12/30 01:43:17;;;;;;;19.23;7.65;;;;;;;;;;5094762;28;20028;-71
2020/12/30 01:45:43;;;;;;;9.15;4.32;;;;;;;;;;5095815;28;20057;-71
2020/12/30 01:48:20;;;;;;;22.52;9.63;;;;;;;;;;5095933;28;20019;-70
2020/12/30 01:50:47;;;;;;;11.38;4.68;;;;;;;;;;5096555;28;20103;-70
2020/12/30 01:53:14;;;;;;;8.02;3.80;;;;;;;;;;5094180;28;20024;-70
2020/12/30 01:55:41;;;;;;;9.77;3.35;;;;;;;;;;5094511;28;20058;-70
2020/12/30 01:58:08;;;;;;;6.40;2.37;;;;;;;;;;5095464;28;20028;-70
2020/12/30 02:00:34;;;;;;;7.40;2.13;;;;;;;;;;5095471;28;20461;-70
2020/12/30 02:03:01;;;;;;;5.35;2.08;;;;;;;;;;5095647;28;20095;-71
2020/12/30 02:05:31;;;;;;;4.88;2.58;;;;;;;;;;5095020;28;20018;-69
2020/12/30 02:08:00;;;;;;;6.10;2.47;;;;;;;;;;5095274;28;20012;-70
2020/12/30 02:10:27;;;;;;;7.55;3.78;;;;;;;;;;5095525;28;20051;-69
2020/12/30 02:12:53;;;;;;;6.95;3.55;;;;;;;;;;5093809;28;20058;-70
2020/12/30 02:15:23;;;;;;;8.90;2.80;;;;;;;;;;5095472;28;20521;-69
2020/12/30 02:17:49;;;;;;;8.43;4.43;;;;;;;;;;5095653;28;20028;-69
2020/12/30 02:20:15;;;;;;;8.43;2.80;;;;;;;;;;5093779;28;20020;-70
2020/12/30 02:22:42;;;;;;;15.23;5.50;;;;;;;;;;5093999;28;20363;-70
2020/12/30 02:25:08;;;;;;;8.80;4.00;;;;;;;;;;5095011;28;20100;-70
2020/12/30 02:27:34;;;;;;;13.75;5.05;;;;;;;;;;5093608;28;20419;-70
2020/12/30 02:30:01;;;;;;;9.70;4.28;;;;;;;;;;5093654;28;20036;-70
2020/12/30 02:32:27;;;;;;;10.65;5.47;;;;;;;;;;5093751;28;20073;-70
2020/12/30 02:34:53;;;;;;;11.52;4.82;;;;;;;;;;5094456;28;20077;-70
2020/12/30 02:37:21;;;;;;;14.20;6.53;;;;;;;;;;5095493;28;20075;-70
2020/12/30 02:39:48;;;;;;;10.68;4.40;;;;;;;;;;5094926;28;20011;-69
2020/12/30 02:42:14;;;;;;;12.00;5.88;;;;;;;;;;5093347;28;20024;-69
2020/12/30 02:44:40;;;;;;;10.13;5.15;;;;;;;;;;5094871;28;20020;-69
2020/12/30 02:47:07;;;;;;;13.35;5.72;;;;;;;;;;5093225;28;20016;-70
2020/12/30 02:49:33;;;;;;;9.23;5.15;;;;;;;;;;5094115;28;20160;-69
2020/12/30 02:51:59;;;;;;;9.40;4.90;;;;;;;;;;5094612;28;20055;-70
2020/12/30 02:54:25;;;;;;;13.20;5.35;;;;;;;;;;5093096;28;20020;-69
2020/12/30 02:56:51;;;;;;;10.73;5.47;;;;;;;;;;5094709;28;20023;-70
2020/12/30 02:59:17;;;;;;;15.32;4.80;;;;;;;;;;5093204;28;20016;-70
2020/12/30 03:01:43;;;;;;;10.32;4.93;;;;;;;;;;5094345;28;20059;-70
2020/12/30 03:04:10;;;;;;;11.85;5.20;;;;;;;;;;5095099;28;20016;-68
2020/12/30 03:06:36;;;;;;;7.22;5.60;;;;;;;;;;5093192;28;20109;-69
2020/12/30 03:09:02;;;;;;;9.65;4.30;;;;;;;;;;5092859;28;20031;-68
2020/12/30 03:11:28;;;;;;;9.30;5.45;;;;;;;;;;5094369;28;20027;-70
2020/12/30 03:13:54;;;;;;;14.52;4.40;;;;;;;;;;5094607;28;20448;-70
2020/12/30 03:16:20;;;;;;;8.70;5.10;;;;;;;;;;5093851;28;20047;-69
2020/12/30 03:18:47;;;;;;;12.60;4.93;;;;;;;;;;5093040;28;20031;-69
2020/12/30 03:21:13;;;;;;;10.93;5.95;;;;;;;;;;5094257;28;20348;-70
2020/12/30 03:23:39;;;;;;;8.52;4.93;;;;;;;;;;5094168;28;20099;-70
2020/12/30 03:26:05;;;;;;;12.63;5.50;;;;;;;;;;5094229;28;20356;-70
2020/12/30 03:28:31;;;;;;;30.70;13.77;;;;;;;;;;5092831;28;20022;-70
2020/12/30 03:30:57;;;;;;;22.33;10.98;;;;;;;;;;5093943;28;20039;-69
2020/12/30 03:33:23;;;;;;;18.30;9.90;;;;;;;;;;5092691;28;20028;-69
2020/12/30 03:35:50;;;;;;;26.50;17.33;;;;;;;;;;5094351;28;20016;-71
2020/12/30 03:38:16;;;;;;;10.10;6.90;;;;;;;;;;5093484;28;20024;-69
2020/12/30 03:40:42;;;;;;;9.23;6.32;;;;;;;;;;5092770;28;20028;-70
2020/12/30 03:43:08;;;;;;;12.18;7.57;;;;;;;;;;5093932;28;20024;-68
2020/12/30 03:45:34;;;;;;;8.73;5.55;;;;;;;;;;5093636;28;20024;-69
2020/12/30 03:48:00;;;;;;;12.52;6.30;;;;;;;;;;5092576;28;20107;-69
2020/12/30 03:50:26;;;;;;;10.90;6.55;;;;;;;;;;5093029;28;20013;-69
2020/12/30 03:52:52;;;;;;;7.68;6.15;;;;;;;;;;5092520;28;20024;-69
2020/12/30 03:55:19;;;;;;;9.38;5.93;;;;;;;;;;5093782;28;20023;-69
2020/12/30 03:57:45;;;;;;;7.80;5.63;;;;;;;;;;5093945;28;20036;-69
2020/12/30 04:00:11;;;;;;;15.00;6.50;;;;;;;;;;5093810;28;20035;-69
2020/12/30 04:02:37;;;;;;;14.98;7.05;;;;;;;;;;5093495;28;20460;-69
2020/12/30 04:05:03;;;;;;;17.92;9.40;;;;;;;;;;5092189;28;20104;-68
2020/12/30 04:07:30;;;;;;;15.18;7.68;;;;;;;;;;5093799;28;20022;-70
2020/12/30 04:09:56;;;;;;;13.13;6.38;;;;;;;;;;5093729;28;20020;-69
2020/12/30 04:12:22;;;;;;;12.95;7.07;;;;;;;;;;5093155;28;20439;-70
2020/12/30 04:14:48;;;;;;;10.63;6.03;;;;;;;;;;5093693;28;20024;-68
2020/12/30 04:17:15;;;;;;;12.20;6.65;;;;;;;;;;5093686;28;20096;-69
2020/12/30 04:19:41;;;;;;;15.02;7.13;;;;;;;;;;5093378;28;20475;-69
2020/12/30 04:22:07;;;;;;;10.35;6.13;;;;;;;;;;5093568;28;20028;-68
2020/12/30 04:24:33;;;;;;;12.57;7.05;;;;;;;;;;5091453;28;20020;-68
2020/12/30 04:26:59;;;;;;;11.23;7.43;;;;;;;;;;5091955;28;20050;-69
2020/12/30 04:29:25;;;;;;;9.55;6.05;;;;;;;;;;5091614;28;20428;-70
2020/12/30 04:31:51;;;;;;;10.35;7.13;;;;;;;;;;5093964;28;20054;-69
2020/12/30 04:34:18;;;;;;;10.82;7.05;;;;;;;;;;5092962;28;20026;-68
2020/12/30 04:36:44;;;;;;;12.07;6.65;;;;;;;;;;5091955;28;20012;-69
2020/12/30 04:39:10;;;;;;;13.43;7.60;;;;;;;;;;5093433;28;20020;-68
2020/12/30 04:41:37;;;;;;;11.68;7.88;;;;;;;;;;5091956;28;20028;-68
2020/12/30 04:44:04;;;;;;;12.57;7.53;;;;;;;;;;5092515;28;20113;-69
2020/12/30 04:46:30;;;;;;;12.40;7.95;;;;;;;;;;5093134;28;20016;-69
2020/12/30 04:48:57;;;;;;;9.70;7.30;;;;;;;;;;5092554;28;20356;-68
2020/12/30 04:51:24;;;;;;;14.52;9.50;;;;;;;;;;5094299;28;20027;-68
2020/12/30 04:53:51;;;;;;;23.10;17.15;;;;;;;;;;5096744;28;20449;-68
2020/12/30 04:56:17;;;;;;;30.10;22.98;;;;;;;;;;5095401;28;20031;-68
2020/12/30 04:58:44;;;;;;;34.10;27.05;;;;;;;;;;5096934;28;20091;-67
2020/12/30 05:01:12;;;;;;;29.17;23.27;;;;;;;;;;5095986;28;20457;-67
2020/12/30 05:03:45;;;;;;;20.92;16.80;;;;;;;;;;5096332;28;20020;-68
2020/12/30 05:06:12;;;;;;;23.85;16.48;;;;;;;;;;5094294;28;20020;-65
2020/12/30 05:08:40;;;;;;;22.90;16.02;;;;;;;;;;5093898;28;20039;-66
2020/12/30 05:11:06;;;;;;;24.33;15.75;;;;;;;;;;5095339;28;20019;-67
2020/12/30 05:13:32;;;;;;;35.45;22.38;;;;;;;;;;5095390;28;20073;-67
2020/12/30 05:15:58;;;;;;;28.65;17.58;;;;;;;;;;5093745;28;20012;-68
2020/12/30 05:18:25;;;;;;;24.20;14.95;;;;;;;;;;5096001;28;20021;-68
2020/12/30 05:20:51;;;;;;;26.23;14.32;;;;;;;;;;5096403;28;20068;-69
2020/12/30 05:23:17;;;;;;;20.30;14.05;;;;;;;;;;5094919;28;20035;-68
2020/12/30 05:25:44;;;;;;;32.97;20.67;;;;;;;;;;5096085;28;20460;-68
2020/12/30 05:28:11;;;;;;;38.80;21.05;;;;;;;;;;5096344;28;20020;-68
2020/12/30 05:30:38;;;;;;;39.17;25.35;;;;;;;;;;5096387;28;20048;-68
2020/12/30 05:33:04;;;;;;;33.20;20.93;;;;;;;;;;5096299;28;20020;-68
2020/12/30 05:35:31;;;;;;;60.50;34.47;;;;;;;;;;5095884;28;20102;-69
2020/12/30 05:37:57;;;;;;;87.88;49.97;;;;;;;;;;5096192;28;20247;-70
2020/12/30 05:40:24;;;;;;;55.22;31.17;;;;;;;;;;5096427;28;20026;-68
2020/12/30 05:42:51;;;;;;;53.65;26.33;;;;;;;;;;5096413;28;20021;-67
2020/12/30 05:45:20;;;;;;;41.25;22.83;;;;;;;;;;5096000;28;20024;-67
2020/12/30 05:47:47;;;;;;;42.42;24.80;;;;;;;;;;5095997;28;20058;-68
2020/12/30 05:50:13;;;;;;;36.90;23.92;;;;;;;;;;5094313;28;20016;-67
2020/12/30 05:52:40;;;;;;;66.95;45.50;;;;;;;;;;5095827;28;20035;-69
2020/12/30 05:55:09;;;;;;;57.35;37.00;;;;;;;;;;5095797;28;20024;-67
2020/12/30 05:57:37;;;;;;;57.53;34.08;;;;;;;;;;5095292;28;20042;-68
2020/12/30 06:00:13;;;;;;;64.32;36.03;;;;;;;;;;5095592;28;20087;-69
2020/12/30 06:02:45;;;;;;;52.55;36.92;;;;;;;;;;5095342;28;20020;-68
2020/12/30 06:05:16;;;;;;;67.15;41.42;;;;;;;;;;5094046;28;20016;-68
2020/12/30 06:07:43;;;;;;;45.80;28.30;;;;;;;;;;5096487;28;20012;-66
2020/12/30 06:10:10;;;;;;;27.90;18.63;;;;;;;;;;5095002;28;20031;-67
2020/12/30 06:12:44;;;;;;;33.58;23.63;;;;;;;;;;5095211;28;20027;-68
2020/12/30 06:15:14;;;;;;;36.97;27.15;;;;;;;;;;5095473;28;20043;-68
2020/12/30 06:17:50;;;;;;;63.05;32.53;;;;;;;;;;5094825;28;20368;-68
2020/12/30 06:20:20;;;;;;;49.40;31.15;;;;;;;;;;5095616;28;20570;-67
2020/12/30 06:22:51;;;;;;;42.08;28.00;;;;;;;;;;5095273;28;20036;-68
2020/12/30 06:25:20;;;;;;;60.22;41.67;;;;;;;;;;5095090;28;20012;-69
2020/12/30 06:27:48;;;;;;;44.40;32.75;;;;;;;;;;5095470;28;20487;-68
2020/12/30 06:30:15;;;;;;;44.40;36.72;;;;;;;;;;5095180;28;20048;-67
2020/12/30 06:32:42;;;;;;;39.50;27.70;;;;;;;;;;5094468;28;20427;-66
2020/12/30 06:35:10;;;;;;;38.58;25.95;;;;;;;;;;5095109;28;20237;-67
2020/12/30 06:37:37;;;;;;;52.80;35.03;;;;;;;;;;5095040;28;20020;-68
2020/12/30 06:40:21;;;;;;;63.33;47.72;;;;;;;;;;5094453;28;20016;-68
2020/12/30 06:42:49;;;;;;;84.53;59.72;;;;;;;;;;5093602;28;20111;-69
2020/12/30 06:45:16;;;;;;;86.22;54.70;;;;;;;;;;5093304;28;20024;-67
2020/12/30 06:47:58;;;;;;;117.65;76.03;;;;;;;;;;5095414;28;20496;-68
2020/12/30 06:50:24;;;;;;;149.05;91.00;;;;;;;;;;5095063;28;20069;-67
2020/12/30 06:52:50;;;;;;;115.13;60.67;;;;;;;;;;5094396;28;20101;-68
2020/12/30 06:55:16;;;;;;;95.95;52.70;;;;;;;;;;5093428;28;20024;-68
2020/12/30 06:57:47;;;;;;;51.95;32.13;;;;;;;;;;5095198;28;20040;-69
2020/12/30 07:00:22;;;;;;;66.90;42.95;;;;;;;;;;5094429;28;20012;-72
2020/12/30 07:03:07;;;;;;;47.78;30.02;;;;;;;;;;5093273;28;20027;-70
2020/12/30 07:05:33;;;;;;;32.38;19.98;;;;;;;;;;5093306;28;20026;-71
2020/12/30 07:07:59;;;;;;;40.05;22.50;;;;;;;;;;5094154;28;20016;-70
2020/12/30 07:10:25;;;;;;;41.92;25.58;;;;;;;;;;5094429;28;20024;-78
2020/12/30 07:12:51;;;;;;;42.58;26.13;;;;;;;;;;5092763;28;20457;-75
2020/12/30 07:15:24;;;;;;;31.45;20.27;;;;;;;;;;5092542;28;20059;-73
2020/12/30 07:17:50;;;;;;;33.40;23.10;;;;;;;;;;5093939;28;20023;-73
2020/12/30 07:20:23;;;;;;;42.67;29.55;;;;;;;;;;5094253;28;20059;-72
2020/12/30 07:22:49;;;;;;;45.38;29.38;;;;;;;;;;5092931;28;20461;-72
2020/12/30 07:25:16;;;;;;;38.17;22.20;;;;;;;;;;5092988;28;20024;-73
2020/12/30 07:27:42;;;;;;;46.40;23.37;;;;;;;;;;5093053;28;20016;-72
2020/12/30 07:30:08;;;;;;;42.67;25.23;;;;;;;;;;5092684;28;20127;-73
2020/12/30 07:32:34;;;;;;;42.15;26.13;;;;;;;;;;5092756;28;20028;-73
2020/12/30 07:35:07;;;;;;;64.60;45.40;;;;;;;;;;5092299;28;20040;-74
2020/12/30 07:37:33;;;;;;;77.15;53.53;;;;;;;;;;5094126;28;20016;-73
2020/12/30 07:40:00;;;;;;;50.80;33.63;;;;;;;;;;5092788;28;20115;-74
2020/12/30 07:42:27;;;;;;;79.82;53.25;;;;;;;;;;5092419;28;20069;-76
2020/12/30 07:44:57;;;;;;;78.28;50.28;;;;;;;;;;5094041;28;20016;-74
2020/12/30 07:47:24;;;;;;;114.60;72.20;;;;;;;;;;5092680;28;20051;-71
2020/12/30 07:49:50;;;;;;;125.15;73.15;;;;;;;;;;5092356;28;20023;-71
2020/12/30 07:52:17;;;;;;;117.53;67.88;;;;;;;;;;5094284;28;20103;-75
2020/12/30 07:54:43;;;;;;;112.53;67.40;;;;;;;;;;5092904;28;20044;-69
2020/12/30 07:57:09;;;;;;;90.95;52.17;;;;;;;;;;5093680;28;20012;-73
2020/12/30 07:59:36;;;;;;;66.57;41.33;;;;;;;;;;5092603;28;20020;-69
2020/12/30 08:02:06;;;;;;;61.30;40.55;;;;;;;;;;5094144;28;20176;-70
2020/12/30 08:04:33;;;;;;;92.45;59.75;;;;;;;;;;5092493;28;20021;-70
2020/12/30 08:06:59;;;;;;;84.25;51.67;;;;;;;;;;5094111;28;20440;-70
2020/12/30 08:09:33;;;;;;;78.97;52.53;;;;;;;;;;5093777;28;20031;-68
2020/12/30 08:12:00;;;;;;;70.38;43.47;;;;;;;;;;5093736;28;20113;-73
2020/12/30 08:14:27;;;;;;;60.25;33.85;;;;;;;;;;5092475;28;20166;-72
2020/12/30 08:17:06;;;;;;;44.35;27.95;;;;;;;;;;5092154;28;20469;-72
2020/12/30 08:19:36;;;;;;;48.80;27.05;;;;;;;;;;5092404;28;20036;-73
2020/12/30 08:22:04;;;;;;;38.50;23.65;;;;;;;;;;5093770;28;20077;-71
2020/12/30 08:24:31;;;;;;;40.70;25.15;;;;;;;;;;5093792;28;20020;-71
2020/12/30 08:26:57;;;;;;;38.63;24.98;;;;;;;;;;5097533;28;20020;-71
2020/12/30 08:29:49;;;;;;;37.05;23.05;;;;;;;;;;5097300;28;20016;-72
2020/12/30 08:32:34;;;;;;;40.15;25.65;;;;;;;;;;5092566;28;20122;-73
2020/12/30 08:35:12;;;;;;;46.20;26.73;;;;;;;;;;5096061;28;20020;-73
2020/12/30 08:37:46;;;;;;;37.28;23.17;;;;;;;;;;5095819;28;20472;-72
2020/12/30 08:40:16;;;;;;;38.92;22.17;;;;;;;;;;5097351;28;20073;-71
2020/12/30 08:42:55;;;;;;;40.45;22.10;;;;;;;;;;5097364;28;20521;-70
2020/12/30 08:45:25;;;;;;;38.55;21.75;;;;;;;;;;5096620;28;20016;-71
2020/12/30 08:47:53;;;;;;;40.45;23.77;;;;;;;;;;5097196;28;20043;-71
2020/12/30 08:50:18;;;;;;;;;;;;;;;;;;5097568;28;20020;-70
2020/12/30 08:52:45;;;;;;;31.60;18.63;;;;;;;;;;5096468;28;19911;-70
2020/12/30 08:55:11;;;;;;;38.15;24.35;;;;;;;;;;5095759;28;20024;-71
2020/12/30 08:57:43;;;;;;;50.83;32.28;;;;;;;;;;5095756;28;20392;-70
2020/12/30 09:00:12;;;;;;;47.20;25.65;;;;;;;;;;5095427;28;20020;-74
2020/12/30 09:02:38;;;;;;;24.90;15.48;;;;;;;;;;5095603;28;20035;-70
2020/12/30 09:05:04;;;;;;;47.72;23.55;;;;;;;;;;5095230;28;20016;-70
2020/12/30 09:07:30;;;;;;;37.88;20.45;;;;;;;;;;5096827;28;20020;-70
2020/12/30 09:10:15;;;;;;;38.20;19.80;;;;;;;;;;5096775;28;20030;-72
2020/12/30 09:12:41;;;;;;;75.55;34.83;;;;;;;;;;5096629;28;20024;-68
2020/12/30 09:15:08;;;;;;;48.53;26.13;;;;;;;;;;5095423;28;20035;-70
2020/12/30 09:17:34;;;;;;;73.20;40.45;;;;;;;;;;5095328;28;20031;-68
2020/12/30 09:20:13;;;;;;;72.57;34.10;;;;;;;;;;5096330;28;20016;-69
2020/12/30 09:22:39;;;;;;;37.45;22.17;;;;;;;;;;5096524;28;20016;-70
2020/12/30 09:25:06;;;;;;;39.27;21.83;;;;;;;;;;5095268;28;20398;-67
2020/12/30 09:27:35;;;;;;;63.88;34.53;;;;;;;;;;5096200;28;20016;-68
2020/12/30 09:30:05;;;;;;;50.17;29.30;;;;;;;;;;5096213;28;20051;-68
2020/12/30 09:32:31;;;;;;;32.55;17.27;;;;;;;;;;5096284;28;20024;-69
2020/12/30 09:35:01;;;;;;;31.83;21.58;;;;;;;;;;5094722;28;20016;-69
2020/12/30 09:37:27;;;;;;;25.85;16.80;;;;;;;;;;5095805;28;20016;-68
2020/12/30 09:40:13;;;;;;;60.75;36.00;;;;;;;;;;5096195;28;20012;-68
2020/12/30 09:42:40;;;;;;;44.03;24.75;;;;;;;;;;5094876;28;20024;-68
2020/12/30 09:45:07;;;;;;;51.17;23.13;;;;;;;;;;5094821;28;20388;-69
2020/12/30 09:47:33;;;;;;;;;;;;;;;;;;5096184;28;20016;-70
2020/12/30 09:50:00;;;;;;;27.85;16.40;;;;;;;;;;5096065;28;19900;-69
2020/12/30 09:52:26;;;;;;;32.28;17.38;;;;;;;;;;5094597;28;20073;-72
2020/12/30 09:54:52;;;;;;;62.97;30.40;;;;;;;;;;5094589;28;20043;-71
2020/12/30 09:57:18;;;;;;;50.08;25.48;;;;;;;;;;5095852;28;20020;-74
2020/12/30 09:59:44;;;;;;;48.05;24.67;;;;;;;;;;5095706;28;20464;-71
2020/12/30 10:02:11;;;;;;;84.80;43.03;;;;;;;;;;5095491;28;20052;-71
2020/12/30 10:04:38;;;;;;;48.33;29.92;;;;;;;;;;5094407;28;20024;-70
2020/12/30 10:07:04;;;;;;;38.25;20.48;;;;;;;;;;5095658;28;20066;-70
2020/12/30 10:09:30;;;;;;;30.30;19.60;;;;;;;;;;5095296;28;20020;-71
2020/12/30 10:11:57;;;;;;;37.45;23.05;;;;;;;;;;5095810;28;20070;-70
2020/12/30 10:14:23;;;;;;;26.70;15.88;;;;;;;;;;5094546;28;20024;-70
2020/12/30 10:16:49;;;;;;;46.67;26.48;;;;;;;;;;5095082;28;20041;-70
2020/12/30 10:19:16;;;;;;;42.33;26.80;;;;;;;;;;5095982;28;20111;-72
2020/12/30 10:21:42;;;;;;;58.77;34.07;;;;;;;;;;5096141;28;20364;-68
2020/12/30 10:24:08;;;;;;;43.92;25.70;;;;;;;;;;5094004;28;20015;-69
2020/12/30 10:26:34;;;;;;;63.33;36.33;;;;;;;;;;5094013;28;20021;-69
2020/12/30 10:29:01;;;;;;;33.03;22.70;;;;;;;;;;5095123;28;20036;-68
2020/12/30 10:31:27;;;;;;;25.92;16.77;;;;;;;;;;5093627;28;20040;-68
2020/12/30 10:33:53;;;;;;;44.92;26.27;;;;;;;;;;5094846;28;20400;-69
2020/12/30 10:36:21;;;;;;;41.42;27.85;;;;;;;;;;5093084;28;20479;-69
2020/12/30 10:38:47;;;;;;;36.75;22.40;;;;;;;;;;5092401;28;20062;-69
2020/12/30 10:41:17;;;;;;;28.35;18.00;;;;;;;;;;5093354;28;20043;-68
2020/12/30 10:43:43;;;;;;;26.05;13.30;;;;;;;;;;5092053;28;20020;-69
2020/12/30 10:46:16;;;;;;;24.30;13.55;;;;;;;;;;5093481;28;20089;-69
2020/12/30 10:48:48;;;;;;;49.80;26.80;;;;;;;;;;5092575;28;20047;-69
2020/12/30 10:51:17;;;;;;;46.38;30.48;;;;;;;;;;5090159;28;20008;-70
2020/12/30 10:53:44;;;;;;;31.63;21.67;;;;;;;;;;5093475;28;20506;-70
2020/12/30 10:56:11;;;;;;;34.45;19.15;;;;;;;;;;5093264;28;20013;-70
2020/12/30 10:58:38;;;;;;;30.35;19.23;;;;;;;;;;5091798;28;20027;-70
2020/12/30 11:01:11;;;;;;;40.45;23.58;;;;;;;;;;5094398;28;20065;-71
2020/12/30 11:03:37;;;;;;;23.83;12.95;;;;;;;;;;5094011;28;20114;-68
2020/12/30 11:06:04;;;;;;;28.50;15.43;;;;;;;;;;5094551;28;20357;-69
2020/12/30 11:08:30;;;;;;;31.42;15.65;;;;;;;;;;5094236;28;20020;-69
2020/12/30 11:10:57;;;;;;;23.55;14.82;;;;;;;;;;5093219;28;20020;-69
2020/12/30 11:13:24;;;;;;;99.95;72.72;;;;;;;;;;5094646;28;20020;-70
2020/12/30 11:15:50;;;;;;;77.93;61.30;;;;;;;;;;5094398;28;20028;-70
2020/12/30 11:18:16;;;;;;;42.03;26.17;;;;;;;;;;5093968;28;20023;-69
2020/12/30 11:20:42;;;;;;;29.48;16.27;;;;;;;;;;5093216;28;20031;-69
2020/12/30 11:23:08;;;;;;;31.15;19.67;;;;;;;;;;5094222;28;20024;-68
2020/12/30 11:25:34;;;;;;;22.17;13.43;;;;;;;;;;5094119;28;20472;-70
2020/12/30 11:28:01;;;;;;;36.45;18.50;;;;;;;;;;5094154;28;20020;-69
2020/12/30 11:30:28;;;;;;;31.75;19.23;;;;;;;;;;5094381;28;20062;-68
2020/12/30 11:32:54;;;;;;;33.88;21.02;;;;;;;;;;5092511;28;20028;-69
2020/12/30 11:35:20;;;;;;;34.70;19.23;;;;;;;;;;5094163;28;20020;-68
2020/12/30 11:37:46;;;;;;;31.05;20.20;;;;;;;;;;5092899;28;20124;-69
2020/12/30 11:40:12;;;;;;;28.27;17.95;;;;;;;;;;5094245;28;20345;-68
2020/12/30 11:42:40;;;;;;;39.50;24.30;;;;;;;;;;5093768;28;20023;-69
2020/12/30 11:45:07;;;;;;;42.65;26.88;;;;;;;;;;5094571;28;20024;-69
2020/12/30 11:47:33;;;;;;;43.67;24.58;;;;;;;;;;5092658;28;20173;-68
2020/12/30 11:49:59;;;;;;;51.47;29.85;;;;;;;;;;5093930;28;20024;-69
2020/12/30 11:52:26;;;;;;;46.50;26.75;;;;;;;;;;5093882;28;20107;-69
2020/12/30 11:54:52;;;;;;;75.63;42.65;;;;;;;;;;5093357;28;20016;-69
2020/12/30 11:57:18;;;;;;;68.63;42.22;;;;;;;;;;5093927;28;20463;-70
2020/12/30 11:59:44;;;;;;;58.28;36.78;;;;;;;;;;5095123;28;20467;-70
2020/12/30 12:02:11;;;;;;;55.63;35.53;;;;;;;;;;5096517;28;20024;-69
2020/12/30 12:04:37;;;;;;;65.15;38.63;;;;;;;;;;5098039;28;20102;-70
2020/12/30 12:07:03;;;;;;;81.15;48.47;;;;;;;;;;5096361;28;20027;-70
2020/12/30 12:09:30;;;;;;;44.97;25.25;;;;;;;;;;5097941;28;20031;-70
2020/12/30 12:11:56;;;;;;;80.03;43.65;;;;;;;;;;5097527;28;20026;-70
2020/12/30 12:14:22;;;;;;;69.65;41.17;;;;;;;;;;5096304;28;20039;-69
2020/12/30 12:16:55;;;;;;;67.45;41.15;;;;;;;;;;5097544;28;20019;-69
2020/12/30 12:19:21;;;;;;;52.67;29.38;;;;;;;;;;5097703;28;20012;-69
2020/12/30 12:21:47;;;;;;;69.32;36.25;;;;;;;;;;5097390;28;20461;-69
2020/12/30 12:24:14;;;;;;;78.50;35.83;;;;;;;;;;5096066;28;20020;-70
2020/12/30 12:26:40;;;;;;;91.65;43.55;;;;;;;;;;5097714;28;20018;-69
2020/12/30 12:29:25;;;;;;;95.80;46.40;;;;;;;;;;5097033;28;20506;-68
2020/12/30 12:32:04;;;;;;;76.95;39.13;;;;;;;;;;5096199;28;20071;-69
2020/12/30 12:34:30;;;;;;;69.28;39.78;;;;;;;;;;5097162;28;20346;-68
2020/12/30 12:36:56;;;;;;;66.53;36.00;;;;;;;;;;5096936;28;20019;-69
2020/12/30 12:39:22;;;;;;;67.43;41.33;;;;;;;;;;5097429;28;20099;-69
2020/12/30 12:41:55;;;;;;;55.70;31.58;;;;;;;;;;5096060;28;20059;-69
2020/12/30 12:44:22;;;;;;;39.35;27.02;;;;;;;;;;5096990;28;20065;-70
2020/12/30 12:46:48;;;;;;;39.40;24.57;;;;;;;;;;5097678;28;20103;-68
2020/12/30 12:49:14;;;;;;;34.15;20.73;;;;;;;;;;5095829;28;20019;-70
2020/12/30 12:51:45;;;;;;;35.10;20.40;;;;;;;;;;5096823;28;20028;-69
2020/12/30 12:54:11;;;;;;;24.35;14.18;;;;;;;;;;5097161;28;20020;-69
2020/12/30 12:56:37;;;;;;;30.17;16.75;;;;;;;;;;5095417;28;20051;-69
2020/12/30 12:59:03;;;;;;;27.98;17.00;;;;;;;;;;5097163;28;20098;-69
2020/12/30 13:01:29;;;;;;;48.83;25.85;;;;;;;;;;5096977;28;20064;-69
2020/12/30 13:03:55;;;;;;;30.70;17.63;;;;;;;;;;5095593;28;20024;-69
2020/12/30 13:06:34;;;;;;;24.08;13.90;;;;;;;;;;5096839;28;20023;-70
2020/12/30 13:09:00;;;;;;;19.77;10.48;;;;;;;;;;5096532;28;20068;-69
2020/12/30 13:11:27;;;;;;;20.35;11.38;;;;;;;;;;5094151;28;20380;-69
2020/12/30 13:13:53;;;;;;;61.53;26.67;;;;;;;;;;5096699;28;20008;-69
2020/12/30 13:16:20;;;;;;;29.63;14.75;;;;;;;;;;5095370;28;20107;-69
2020/12/30 13:18:46;;;;;;;39.70;22.08;;;;;;;;;;5095031;28;20107;-71
2020/12/30 13:21:12;;;;;;;75.72;40.15;;;;;;;;;;5096287;28;20020;-69
2020/12/30 13:23:38;;;;;;;39.53;20.17;;;;;;;;;;5095260;28;20032;-72
2020/12/30 13:26:04;;;;;;;36.67;18.60;;;;;;;;;;5096564;28;20062;-73
2020/12/30 13:28:31;;;;;;;29.83;14.43;;;;;;;;;;5095195;28;20016;-78
2020/12/30 13:30:57;;;;;;;26.13;15.32;;;;;;;;;;5094768;28;20047;-75
2020/12/30 13:33:23;;;;;;;25.38;14.98;;;;;;;;;;5094876;28;20403;-73
2020/12/30 13:35:50;;;;;;;31.20;14.45;;;;;;;;;;5095074;28;20027;-74
2020/12/30 13:38:16;;;;;;;38.42;17.40;;;;;;;;;;5094753;28;20039;-77
2020/12/30 13:40:42;;;;;;;36.45;17.63;;;;;;;;;;5095245;28;20414;-72
2020/12/30 13:43:09;;;;;;;36.33;18.35;;;;;;;;;;5094857;28;20177;-72
2020/12/30 13:45:35;;;;;;;24.95;14.18;;;;;;;;;;5095572;28;20016;-72
2020/12/30 13:48:01;;;;;;;31.83;18.40;;;;;;;;;;5096079;28;20025;-72
2020/12/30 13:50:28;;;;;;;36.10;19.77;;;;;;;;;;5094766;28;20373;-72
2020/12/30 13:52:54;;;;;;;15.75;7.88;;;;;;;;;;5094339;28;20368;-70
2020/12/30 13:55:20;;;;;;;13.43;8.02;;;;;;;;;;5095625;28;20012;-73
2020/12/30 13:57:47;;;;;;;32.55;18.60;;;;;;;;;;5096138;28;20026;-71
2020/12/30 14:00:13;;;;;;;20.13;12.23;;;;;;;;;;5095495;28;20052;-71
2020/12/30 14:02:39;;;;;;;20.77;10.70;;;;;;;;;;5093919;28;20035;-72
2020/12/30 14:05:06;;;;;;;31.95;20.48;;;;;;;;;;5094285;28;20410;-70
2020/12/30 14:07:32;;;;;;;37.53;19.07;;;;;;;;;;5095021;28;20059;-72
2020/12/30 14:09:58;;;;;;;27.30;15.77;;;;;;;;;;5092926;28;20019;-72
2020/12/30 14:12:24;;;;;;;35.35;19.50;;;;;;;;;;5093838;28;20457;-71
2020/12/30 14:14:51;;;;;;;63.28;38.20;;;;;;;;;;5092564;28;20407;-71
2020/12/30 14:17:17;;;;;;;43.10;25.10;;;;;;;;;;5093923;28;20548;-71
2020/12/30 14:19:43;;;;;;;20.95;10.60;;;;;;;;;;5092838;28;20024;-71
2020/12/30 14:22:09;;;;;;;13.10;7.85;;;;;;;;;;5093392;28;20489;-72
2020/12/30 14:24:36;;;;;;;16.27;7.23;;;;;;;;;;5093436;28;20024;-72